Belgrade, MN

4:10 AM CST on February 08, 2016 (GMT -0600)
Sibley | | Change Station
CLOSE
Current Station
Personal Weather Station
Location: New London, MN
Elevation: 1260 ft
Nearby Weather Stations
Active Advisory: Winter Weather Advisory

Elev 1260 ft 45.33 °N, 95.01 °W | Updated 5 minutes ago

Snow
Snow
8.6 °F
Feels Like -1 °F
N
5.8
Wind Variable Wind from WNW

Today
High -- | Low -- °F
--% Chance of Precip.
Yesterday
High -- | Low -- °F
Precip. -- in
Pressure 29.89 in
Visibility 5.0 miles
Clouds Scattered Clouds 1400 ft
Overcast 3700 ft
Windchill -1 °F
Dew Point 5 °F
Humidity 86%
Rainfall 0.00 in
Snow Depth Not available.
7:32 AM 5:36 PM
Waning Crescent, 0% visible
METAR KPEX 080953Z AUTO 32015G25KT 5SM BR SCT014 OVC037 M12/M15 A2989 RMK AO2 T11251151
Pressure 29.89 in
Visibility 5.0 miles
Clouds Scattered Clouds 1400 ft
Overcast 3700 ft
Windchill -1 °F
Dew Point 5 °F
Humidity 86%
Rainfall 0.00 in
Snow Depth Not available.
7:32 AM 5:36 PM
Waning Crescent, 0% visible
METAR KPEX 080953Z AUTO 32015G25KT 5SM BR SCT014 OVC037 M12/M15 A2989 RMK AO2 T11251151

10-Day Weather Forecast

Almanac

Astronomy

Feb. 08, 2016 Rise Set
Actual Time
Civil Twilight
Nautical Twilight
Astronomical Twilight
Moon
Length of Visible Light
Length of Day
Tomorrow will be .
, % of the Moon is Illuminated

Today's Extremes

State Highs State Lows

Community

WunderPhotos

Upload Photos

1,891,412 photos uploaded!

WunderBlog® & News

Nearby

Air Quality

  Air Quality AQ Index Pollutant
Not available.

Snow Depth

Station Depth Elevation

Earthquake Activity

City Distance Mag. Time & Date
Minimum magnitude displayed is 2.5.

Coastal Water Temperatures

Place Temperature

Stations

Nearby Weather Stations

Station Location Temp. Windchill Dew Point Humidity Wind Precip. Elev Updated Type
                   

Watches & Warnings

Winter Weather Advisory
Issued: 3:47 AM CST Feb. 8, 2016 – National Weather Service

... Winter Weather Advisory remains in effect until noon CST
today...

* expect occasional light snow through noon.

* Additional snow accumulations of less than in inch expected.

* Winds gusting as high as 30 mph will cause areas of blowing
snow.

* Plan on reduced visibility at times and slippery Road
conditions.

Precautionary/preparedness actions...

A Winter Weather Advisory for snow means periods of snow will
cause primarily travel difficulties. Be prepared for snow covered
roads and limited visibilities... and use caution while driving.
The latest Road conditions for the state you are calling from can
be obtained by calling 5 1 1.


Jrb